Time;durP1;ratioP1;P1;durP2;ratioP2;P2;SDS_P1;SDS_P2;PMS_P1;PMS_P2;Temp;Humidity;BMP_temperature;BMP_pressure;BME280_temperature;BME280_humidity;BME280_pressure;Samples;Min_cycle;Max_cycle;Signal;HPM_P1;HPM_P2
2022/04/30 00:01:28;;;;;;;34.95;18.80;;;;;;;10.85;100.00;97977.28;5092139;28;20016;-89
2022/04/30 00:03:54;;;;;;;31.10;17.63;;;;;;;10.87;100.00;97970.00;5090979;28;20034;-89
2022/04/30 00:06:20;;;;;;;34.80;19.23;;;;;;;10.86;100.00;97969.16;5088138;28;20032;-89
2022/04/30 00:08:45;;;;;;;32.08;17.50;;;;;;;10.84;100.00;97972.84;5091339;28;20016;-89
2022/04/30 00:11:11;;;;;;;37.08;18.75;;;;;;;10.84;100.00;97956.81;5072600;28;20035;-89
2022/04/30 00:13:38;;;;;;;32.08;18.02;;;;;;;10.88;100.00;97971.75;5090947;28;20028;-89
2022/04/30 00:16:04;;;;;;;33.05;18.63;;;;;;;10.81;100.00;97962.31;5104833;28;20024;-89
2022/04/30 00:18:29;;;;;;;34.40;18.13;;;;;;;10.84;100.00;97964.84;5091380;28;20080;-88
2022/04/30 00:20:58;;;;;;;36.28;17.85;;;;;;;10.88;100.00;97966.41;5091772;28;20073;-89
2022/04/30 00:23:24;;;;;;;33.20;18.02;;;;;;;10.83;100.00;97963.09;5092357;28;20389;-89
2022/04/30 00:25:51;;;;;;;33.80;18.00;;;;;;;10.81;100.00;97981.06;5083894;28;20024;-89
2022/04/30 00:28:19;;;;;;;33.78;17.70;;;;;;;10.81;100.00;97976.56;5090700;28;20392;-89
2022/04/30 00:30:46;;;;;;;30.45;16.77;;;;;;;10.69;100.00;97961.22;5094962;28;20518;-89
2022/04/30 00:33:12;;;;;;;32.22;17.25;;;;;;;10.73;100.00;97969.94;5091298;28;20024;-89
2022/04/30 00:35:37;;;;;;;29.95;16.50;;;;;;;10.79;100.00;97970.47;5089486;28;20039;-89
2022/04/30 00:38:03;;;;;;;25.40;16.05;;;;;;;10.67;100.00;97967.59;5090340;28;20032;-88
2022/04/30 00:40:28;;;;;;;28.48;15.77;;;;;;;10.68;100.00;97962.16;5096012;28;20018;-90
2022/04/30 00:42:54;;;;;;;26.05;15.70;;;;;;;10.67;100.00;97962.25;5091525;28;20408;-89
2022/04/30 00:45:21;;;;;;;26.90;16.27;;;;;;;10.75;100.00;97965.34;5089652;28;20170;-89
2022/04/30 00:47:46;;;;;;;29.85;17.08;;;;;;;10.77;100.00;97969.66;5105198;28;20436;-90
2022/04/30 00:50:15;;;;;;;31.45;17.73;;;;;;;10.78;100.00;97965.19;5075113;28;20085;-90
2022/04/30 00:52:43;;;;;;;30.95;17.38;;;;;;;10.76;100.00;97977.78;5084966;28;20032;-88
2022/04/30 00:55:08;;;;;;;30.45;17.02;;;;;;;10.71;100.00;97969.13;5086125;28;20471;-90
2022/04/30 00:57:36;;;;;;;30.33;17.30;;;;;;;10.72;100.00;97981.56;5088975;28;20116;-89
2022/04/30 01:00:03;;;;;;;33.13;18.27;;;;;;;10.72;100.00;97970.88;5090528;28;20465;-90
2022/04/30 01:02:31;;;;;;;39.38;16.92;;;;;;;10.67;100.00;97962.25;5085696;28;20026;-90
2022/04/30 01:04:57;;;;;;;27.83;16.95;;;;;;;10.64;100.00;97971.28;5094879;28;20027;-91
2022/04/30 01:07:23;;;;;;;29.05;17.23;;;;;;;10.51;100.00;97974.75;5102877;28;20020;-89
2022/04/30 01:09:51;;;;;;;31.92;17.42;;;;;;;10.46;100.00;97974.97;5075388;28;20024;-90
2022/04/30 01:12:17;;;;;;;28.00;16.38;;;;;;;10.45;100.00;97977.75;5095428;28;20227;-89
2022/04/30 01:14:45;;;;;;;30.85;16.95;;;;;;;10.45;100.00;97969.72;5094740;28;20101;-90
2022/04/30 01:17:11;;;;;;;30.13;15.25;;;;;;;10.36;100.00;97963.06;5094559;28;20452;-90
2022/04/30 01:19:40;;;;;;;30.33;16.15;;;;;;;10.32;100.00;97962.38;5083596;28;20380;-90
2022/04/30 01:22:12;;;;;;;29.67;16.48;;;;;;;10.26;100.00;97952.00;5093757;28;20384;-89
2022/04/30 01:24:38;;;;;;;28.88;16.45;;;;;;;10.26;100.00;97953.81;5077380;28;20028;-90
2022/04/30 01:27:07;;;;;;;33.33;17.77;;;;;;;10.26;100.00;97962.72;5078460;28;20556;-89
2022/04/30 01:29:36;;;;;;;32.47;16.83;;;;;;;10.18;100.00;97956.06;5093698;28;20392;-90
2022/04/30 01:37:36;;;;;;;29.63;16.13;;;;;;;10.16;100.00;97966.81;5089335;28;20047;-91
2022/04/30 01:40:04;;;;;;;29.13;16.33;;;;;;;10.03;100.00;97964.84;5074652;28;20052;-89
2022/04/30 01:42:43;;;;;;;31.55;17.67;;;;;;;10.04;100.00;97963.91;5085929;28;20027;-90
2022/04/30 01:45:10;;;;;;;37.83;18.05;;;;;;;9.98;100.00;97967.75;5092993;28;20024;-89
2022/04/30 01:47:37;;;;;;;36.45;17.83;;;;;;;9.96;100.00;97963.44;5093653;28;20024;-88
2022/04/30 01:50:03;;;;;;;34.88;18.65;;;;;;;9.87;100.00;97954.13;5092532;28;20090;-89
2022/04/30 01:52:30;;;;;;;33.53;18.13;;;;;;;9.89;100.00;97951.34;5076057;28;20028;-89
2022/04/30 01:54:56;;;;;;;31.90;16.83;;;;;;;9.88;100.00;97961.16;5086597;28;20552;-89
2022/04/30 01:57:26;;;;;;;33.80;17.48;;;;;;;9.77;100.00;97952.84;5081641;28;20030;-88
2022/04/30 01:59:53;;;;;;;33.70;17.88;;;;;;;9.68;100.00;97948.00;5093663;28;20024;-89
2022/04/30 02:02:23;;;;;;;32.80;18.05;;;;;;;9.71;100.00;97958.53;5076292;28;20513;-90
2022/04/30 02:04:54;;;;;;;34.45;17.75;;;;;;;9.65;100.00;97953.50;5106209;28;20438;-89
2022/04/30 02:07:20;;;;;;;34.22;18.05;;;;;;;9.52;100.00;97952.38;5092095;28;20089;-89
2022/04/30 02:09:47;;;;;;;38.28;18.20;;;;;;;9.39;100.00;97952.16;5089468;28;20032;-89
2022/04/30 02:12:13;;;;;;;34.72;17.50;;;;;;;9.34;100.00;97945.31;5093746;28;20037;-89
2022/04/30 02:14:41;;;;;;;36.40;17.58;;;;;;;9.38;100.00;97961.13;5093414;28;20244;-89
2022/04/30 02:17:08;;;;;;;34.20;18.20;;;;;;;9.34;100.00;97950.66;5093362;28;20380;-90
2022/04/30 02:20:18;;;;;;;35.38;17.80;;;;;;;9.20;100.00;97928.19;5090780;28;20034;-75
2022/04/30 02:22:20;;;;;;;31.42;16.30;;;;;;;9.18;100.00;97943.44;5089279;28;20027;-89
2022/04/30 02:24:46;;;;;;;36.97;18.08;;;;;;;9.15;100.00;97946.25;5081803;28;20039;-91
2022/04/30 02:27:12;;;;;;;35.45;17.30;;;;;;;9.21;100.00;97943.28;5086573;28;20028;-90
2022/04/30 02:29:38;;;;;;;34.97;16.98;;;;;;;9.08;100.00;97936.81;5095037;28;20043;-90
2022/04/30 02:32:04;;;;;;;37.63;17.70;;;;;;;9.03;100.00;97936.19;5094299;28;20023;-90
2022/04/30 02:34:30;;;;;;;36.03;17.02;;;;;;;9.06;100.00;97937.84;5093203;28;20036;-91
2022/04/30 02:36:55;;;;;;;32.53;16.63;;;;;;;9.14;100.00;97941.84;5078330;28;20089;-89
2022/04/30 02:39:21;;;;;;;33.25;16.63;;;;;;;9.10;100.00;97936.75;5078508;28;20024;-90
2022/04/30 02:41:47;;;;;;;33.78;16.77;;;;;;;9.06;100.00;97943.16;5076067;28;20499;-90
2022/04/30 02:44:13;;;;;;;28.10;16.33;;;;;;;9.10;100.00;97940.28;5089705;28;20466;-89
2022/04/30 02:46:39;;;;;;;40.35;16.95;;;;;;;9.12;100.00;97949.06;5083164;28;20062;-89
2022/04/30 02:49:04;;;;;;;39.30;18.70;;;;;;;9.08;100.00;97941.28;5092753;28;20418;-90
2022/04/30 02:51:30;;;;;;;36.78;18.00;;;;;;;9.11;100.00;97944.66;5079743;28;20098;-90
2022/04/30 02:53:55;;;;;;;39.67;18.00;;;;;;;9.09;100.00;97937.69;5096023;28;20032;-89
2022/04/30 02:56:21;;;;;;;32.55;17.95;;;;;;;9.07;100.00;97937.78;5075293;28;20035;-90
2022/04/30 03:01:31;;;;;;;40.33;19.25;;;;;;;8.91;100.00;97947.47;5101344;28;20045;-89
2022/04/30 03:03:57;;;;;;;44.67;19.45;;;;;;;8.89;100.00;97945.81;5092726;28;20055;-88
2022/04/30 03:06:24;;;;;;;40.85;18.92;;;;;;;8.84;100.00;97942.50;5074296;28;20031;-88
2022/04/30 03:08:50;;;;;;;42.17;20.48;;;;;;;8.79;100.00;97945.41;5092776;28;20040;-88
2022/04/30 03:11:19;;;;;;;39.50;18.38;;;;;;;8.79;100.00;97950.72;5092199;28;20078;-88
2022/04/30 03:13:45;;;;;;;34.10;17.08;;;;;;;8.71;100.00;97942.22;5092454;28;20039;-86
2022/04/30 03:21:42;;;;;;;34.78;17.02;;;;;;;8.69;100.00;97944.09;5090762;28;20046;-88
2022/04/30 03:24:08;;;;;;;38.65;17.75;;;;;;;8.83;100.00;97952.28;5075915;28;20038;-87
2022/04/30 03:26:34;;;;;;;38.30;18.80;;;;;;;8.80;100.00;97959.59;5075422;28;20016;-88
2022/04/30 03:29:03;;;;;;;33.30;17.48;;;;;;;8.77;100.00;97968.59;5095646;28;20055;-88
2022/04/30 03:31:30;;;;;;;40.38;18.40;;;;;;;8.76;100.00;97971.34;5089212;28;20026;-88
2022/04/30 03:33:56;;;;;;;36.63;17.70;;;;;;;8.81;100.00;97975.50;5088558;28;20024;-89
2022/04/30 03:36:21;;;;;;;37.10;17.55;;;;;;;8.83;100.00;97962.13;5068442;28;20019;-89
2022/04/30 03:38:47;;;;;;;36.40;17.45;;;;;;;8.95;100.00;97983.69;5094136;28;20052;-89
2022/04/30 03:41:15;;;;;;;33.05;16.63;;;;;;;9.05;100.00;97979.66;5089639;28;20026;-90
2022/04/30 03:43:41;;;;;;;29.92;16.90;;;;;;;9.16;100.00;97981.81;5093030;28;20113;-89
2022/04/30 03:46:08;;;;;;;31.20;17.27;;;;;;;9.15;100.00;97980.94;5093432;28;20024;-88
2022/04/30 03:48:34;;;;;;;30.42;15.70;;;;;;;9.17;100.00;97973.72;5090946;28;20502;-90
2022/04/30 03:51:00;;;;;;;36.58;17.65;;;;;;;9.37;100.00;97978.06;5092194;28;20024;-90
2022/04/30 03:53:25;;;;;;;43.70;18.15;;;;;;;9.46;100.00;97982.06;5076399;28;20092;-89
2022/04/30 03:55:52;;;;;;;30.80;16.75;;;;;;;9.59;100.00;97984.06;5087625;28;20495;-89
2022/04/30 03:58:17;;;;;;;41.88;18.95;;;;;;;9.74;100.00;97990.41;5080123;28;20035;-90
2022/04/30 04:00:45;;;;;;;34.00;18.23;;;;;;;9.84;100.00;97981.00;5076361;28;20436;-89
2022/04/30 04:03:11;;;;;;;32.45;17.17;;;;;;;9.89;100.00;97988.75;5081805;28;20024;-90
2022/04/30 04:05:38;;;;;;;32.42;17.77;;;;;;;9.84;100.00;97981.00;5082928;28;20027;-89
2022/04/30 04:08:14;;;;;;;31.42;17.33;;;;;;;9.86;100.00;97979.09;5092861;28;20020;-89
2022/04/30 04:10:41;;;;;;;32.60;17.05;;;;;;;9.84;100.00;97981.00;5091266;28;20070;-90
2022/04/30 04:18:35;;;;;;;37.33;17.48;;;;;;;10.02;100.00;98000.53;5089747;28;20114;-88
2022/04/30 04:21:02;;;;;;;37.30;16.88;;;;;;;10.09;100.00;97997.44;5070851;28;20028;-89
2022/04/30 04:23:28;;;;;;;32.60;17.05;;;;;;;10.11;100.00;97992.91;5075819;28;20067;-90
2022/04/30 04:26:00;;;;;;;31.42;16.30;;;;;;;10.11;100.00;97992.91;5092774;28;20074;-89
2022/04/30 04:28:30;;;;;;;31.92;16.40;;;;;;;10.13;100.00;97988.34;5091514;28;20127;-89
2022/04/30 04:30:57;;;;;;;29.10;16.35;;;;;;;10.15;100.00;97991.81;5089998;28;20052;-89
2022/04/30 04:33:23;;;;;;;34.88;17.27;;;;;;;10.19;100.00;97995.19;5091667;28;20015;-89
2022/04/30 04:35:48;;;;;;;27.63;16.25;;;;;;;10.21;100.00;97993.31;5086506;28;20365;-90
2022/04/30 04:38:14;;;;;;;32.00;17.60;;;;;;;10.23;100.00;97999.44;5092460;28;20499;-90
2022/04/30 04:40:40;;;;;;;34.13;18.38;;;;;;;10.27;100.00;98004.50;5089332;28;20083;-90
2022/04/30 04:43:05;;;;;;;43.28;19.30;;;;;;;10.11;100.00;97979.53;5109571;28;20445;-90
2022/04/30 04:45:31;;;;;;;38.08;18.92;;;;;;;10.20;100.00;97973.72;5094857;28;20023;-89
2022/04/30 04:47:57;;;;;;;42.38;21.55;;;;;;;10.38;100.00;97987.91;5089571;28;20031;-90
2022/04/30 04:50:23;;;;;;;40.40;19.65;;;;;;;10.47;100.00;97990.09;5092789;28;20472;-89
2022/04/30 04:52:49;;;;;;;49.60;22.35;;;;;;;10.55;100.00;97995.03;5078252;28;20043;-90
2022/04/30 04:55:15;;;;;;;36.53;20.35;;;;;;;10.61;100.00;97995.53;5096804;28;20020;-90
2022/04/30 04:57:41;;;;;;;41.53;20.13;;;;;;;10.49;100.00;97995.38;5096742;28;20085;-90
2022/04/30 05:00:08;;;;;;;32.15;18.27;;;;;;;10.41;100.00;97997.56;5092223;28;20019;-90
2022/04/30 05:02:35;;;;;;;29.00;16.42;;;;;;;10.32;100.00;97998.94;5093883;28;20027;-90
2022/04/30 05:05:00;;;;;;;28.50;13.85;;;;;;;10.36;100.00;97996.97;5099712;28;20135;-90
2022/04/30 05:07:26;;;;;;;30.42;15.55;;;;;;;10.52;100.00;97984.50;5078151;28;20047;-90
2022/04/30 05:09:52;;;;;;;32.78;16.10;;;;;;;10.77;100.00;97992.88;5077931;28;20035;-90
2022/04/30 05:12:18;;;;;;;29.52;15.65;;;;;;;10.92;100.00;97994.69;5094303;28;20424;-90
2022/04/30 05:15:02;;;;;;;28.85;15.93;;;;;;;11.10;100.00;98001.72;5085816;28;20430;-91
2022/04/30 05:17:28;;;;;;;43.35;21.17;;;;;;;11.12;100.00;97996.25;5096535;28;20020;-91
2022/04/30 05:19:54;;;;;;;48.65;24.50;;;;;;;11.18;100.00;98017.31;5097464;28;20035;-91
2022/04/30 05:22:20;;;;;;;42.30;23.40;;;;;;;11.03;100.00;98004.81;5105638;28;20488;-91
2022/04/30 05:24:45;;;;;;;33.20;17.75;;;;;;;10.95;100.00;98004.38;5087511;28;20418;-90
2022/04/30 05:27:11;;;;;;;32.05;16.80;;;;;;;11.04;100.00;98020.81;5094812;28;20031;-90
2022/04/30 05:29:37;;;;;;;29.05;17.17;;;;;;;10.79;100.00;98017.75;5105810;28;20039;-90
2022/04/30 05:32:04;;;;;;;34.50;16.55;;;;;;;10.52;100.00;98028.13;5102407;28;20533;-90
2022/04/30 05:34:30;;;;;;;32.67;18.15;;;;;;;10.52;100.00;98019.28;5095553;28;20050;-90
2022/04/30 05:36:56;;;;;;;40.13;16.85;;;;;;;10.73;100.00;98023.44;5089168;28;20107;-91
2022/04/30 05:39:22;;;;;;;31.80;16.92;;;;;;;10.76;100.00;98020.59;5095075;28;20032;-90
2022/04/30 05:41:48;;;;;;;31.17;16.33;;;;;;;10.89;100.00;98026.97;5090107;28;20028;-91
2022/04/30 05:44:14;;;;;;;30.77;15.98;;;;;;;10.81;100.00;98010.50;5075361;28;20469;-89
2022/04/30 05:46:39;;;;;;;31.25;15.98;;;;;;;11.02;100.00;98019.13;5095969;28;20032;-90
2022/04/30 05:49:05;;;;;;;30.20;16.90;;;;;;;11.20;100.00;98031.47;5094480;28;20038;-90
2022/04/30 05:51:31;;;;;;;32.08;16.80;;;;;;;11.26;100.00;98029.31;5093595;28;20082;-91
2022/04/30 05:53:57;;;;;;;32.33;17.00;;;;;;;11.48;100.00;98037.00;5080178;28;20032;-90
2022/04/30 05:56:23;;;;;;;27.65;16.70;;;;;;;11.59;100.00;98028.34;5093891;28;20067;-90
2022/04/30 05:58:48;;;;;;;29.52;16.70;;;;;;;11.76;100.00;98047.00;5093555;28;20647;-89
2022/04/30 06:01:14;;;;;;;33.97;17.27;;;;;;;11.69;100.00;98040.25;5078304;28;20042;-90
2022/04/30 06:03:40;;;;;;;36.88;17.23;;;;;;;11.65;100.00;98049.41;5094717;28;20368;-87
2022/04/30 06:06:06;;;;;;;35.53;17.80;;;;;;;11.69;100.00;98018.81;5097239;28;20040;-89
2022/04/30 06:08:32;;;;;;;36.35;19.08;;;;;;;11.76;100.00;98038.97;5089293;28;20056;-90
2022/04/30 06:11:00;;;;;;;36.47;18.67;;;;;;;11.81;100.00;98028.84;5085055;28;20060;-89
2022/04/30 06:13:26;;;;;;;34.80;18.50;;;;;;;12.01;100.00;98047.28;5093724;28;20031;-89
2022/04/30 06:15:51;;;;;;;32.90;17.13;;;;;;;12.10;100.00;98037.81;5076495;28;20407;-89
2022/04/30 06:18:20;;;;;;;35.28;17.92;;;;;;;12.34;100.00;98050.59;5103692;28;20032;-90
2022/04/30 06:20:46;;;;;;;41.97;18.30;;;;;;;12.57;100.00;98057.25;5084330;28;20024;-88
2022/04/30 06:23:17;;;;;;;33.30;18.67;;;;;;;12.77;100.00;98058.69;5097905;28;20020;-90
2022/04/30 06:25:45;;;;;;;37.55;19.15;;;;;;;12.63;100.00;98056.88;5095554;28;20024;-89
2022/04/30 06:28:12;;;;;;;35.15;18.88;;;;;;;12.68;100.00;98060.13;5095846;28;20035;-89
2022/04/30 06:30:39;;;;;;;39.83;19.33;;;;;;;12.71;100.00;98053.69;5078047;28;20114;-88
2022/04/30 06:33:05;;;;;;;35.53;19.38;;;;;;;12.86;100.00;98050.06;5077374;28;20108;-89
2022/04/30 06:35:31;;;;;;;42.83;20.10;;;;;;;12.85;100.00;98057.28;5077260;28;20031;-88
2022/04/30 06:37:56;;;;;;;41.33;19.20;;;;;;;13.26;100.00;98057.34;5096201;28;20043;-90
2022/04/30 06:40:22;;;;;;;41.92;21.27;;;;;;;13.40;100.00;98059.13;5083282;28;20415;-91
2022/04/30 06:42:48;;;;;;;44.97;23.00;;;;;;;13.50;100.00;98060.28;5077833;28;20078;-75
2022/04/30 06:45:14;;;;;;;54.53;24.75;;;;;;;13.91;100.00;98065.56;5092114;28;20043;-76
2022/04/30 06:47:40;;;;;;;42.80;24.20;;;;;;;13.92;100.00;98060.09;5090601;28;20027;-75
2022/04/30 06:50:07;;;;;;;40.80;22.13;;;;;;;13.57;100.00;98051.69;5087037;28;20086;-76
2022/04/30 06:52:33;;;;;;;44.65;22.95;;;;;;;13.80;100.00;98057.38;5089689;28;20035;-76
2022/04/30 06:57:45;;;;;;;40.80;19.17;;;;;;;13.40;100.00;98054.63;5090177;28;20058;-77
2022/04/30 07:02:55;;;;;;;37.88;20.40;;;;;;;13.64;100.00;98051.28;5090543;28;20050;-76
2022/04/30 07:05:22;;;;;;;41.90;19.33;;;;;;;13.87;100.00;98048.78;5090220;28;20020;-76
2022/04/30 07:07:47;;;;;;;36.63;19.90;;;;;;;13.75;100.00;98054.97;5089743;28;20036;-76
2022/04/30 07:10:13;;;;;;;30.85;17.60;;;;;;;14.25;98.88;98048.88;5090275;28;20035;-76
2022/04/30 07:12:39;;;;;;;36.97;17.17;;;;;;;14.25;95.73;98051.56;5089865;28;20161;-76
2022/04/30 07:15:05;;;;;;;28.63;15.95;;;;;;;14.16;96.76;98059.41;5089912;28;20038;-76
2022/04/30 07:17:30;;;;;;;35.47;17.17;;;;;;;13.77;99.00;98055.75;5089951;28;20028;-76
2022/04/30 07:19:56;;;;;;;33.33;16.73;;;;;;;13.57;100.00;98048.13;5091141;28;20039;-76
2022/04/30 07:22:22;;;;;;;33.78;17.20;;;;;;;13.70;100.00;98050.88;5091132;28;20070;-76
2022/04/30 07:24:48;;;;;;;30.65;17.52;;;;;;;13.91;100.00;98054.81;5072846;28;20490;-76
2022/04/30 07:27:13;;;;;;;30.60;17.73;;;;;;;14.18;98.18;98058.31;5090059;28;20055;-77
2022/04/30 07:29:39;;;;;;;36.55;17.20;;;;;;;13.95;99.57;98062.59;5090102;28;20504;-75
2022/04/30 07:32:08;;;;;;;35.05;16.17;;;;;;;14.03;100.00;98065.63;5089816;28;20036;-76
2022/04/30 07:34:35;;;;;;;34.47;16.48;;;;;;;14.07;100.00;98055.50;5089913;28;20036;-76
2022/04/30 07:37:00;;;;;;;39.67;17.15;;;;;;;14.27;99.70;98060.41;5089416;28;20047;-76
2022/04/30 07:39:26;;;;;;;39.55;16.95;;;;;;;14.54;98.01;98073.81;5090959;28;20497;-76
2022/04/30 07:41:55;;;;;;;41.92;17.45;;;;;;;14.99;94.75;98077.78;5090813;28;20020;-76
2022/04/30 07:44:26;;;;;;;33.97;17.10;;;;;;;14.92;93.46;98077.38;5091140;28;20035;-75
2022/04/30 07:46:52;;;;;;;32.20;16.13;;;;;;;14.92;91.99;98080.06;5091044;28;20478;-74
2022/04/30 07:49:17;;;;;;;38.72;16.83;;;;;;;14.95;91.38;98090.63;5090914;28;20035;-74
2022/04/30 07:51:53;;;;;;;38.38;17.23;;;;;;;14.92;92.76;98090.00;5089760;28;20063;-74
2022/04/30 07:54:20;;;;;;;35.97;16.23;;;;;;;14.85;93.54;98088.69;5089805;28;20086;-75
2022/04/30 07:56:46;;;;;;;27.73;14.95;;;;;;;15.29;90.36;98078.28;5089753;28;20023;-77
2022/04/30 07:59:12;;;;;;;34.78;16.17;;;;;;;15.75;87.79;98085.75;5089584;28;20027;-75
2022/04/30 08:01:38;;;;;;;26.73;14.45;;;;;;;15.67;86.35;98087.19;5089192;28;20345;-75
2022/04/30 08:04:04;;;;;;;32.05;15.32;;;;;;;15.22;88.44;98062.69;5089136;28;20087;-74
2022/04/30 08:06:29;;;;;;;28.42;14.00;;;;;;;15.82;86.69;98068.13;5089574;28;20115;-74
2022/04/30 08:08:55;;;;;;;32.58;16.13;;;;;;;16.00;85.59;98064.91;5089153;28;20030;-75
2022/04/30 08:11:20;;;;;;;21.27;12.48;;;;;;;16.16;82.77;98061.91;5089645;28;20028;-76
2022/04/30 08:13:46;;;;;;;25.38;14.35;;;;;;;16.53;81.45;98071.59;5072633;28;20028;-75
2022/04/30 08:16:12;;;;;;;22.40;13.27;;;;;;;17.34;77.43;98069.63;5089199;28;20058;-76
2022/04/30 08:18:38;;;;;;;19.83;12.25;;;;;;;18.67;71.03;98065.66;5090549;28;20036;-75
2022/04/30 08:21:05;;;;;;;22.52;12.50;;;;;;;19.76;64.41;98068.63;5092329;28;20038;-76
2022/04/30 08:23:33;;;;;;;22.45;12.10;;;;;;;20.36;60.19;98054.03;5093660;28;20062;-76
2022/04/30 08:25:59;;;;;;;16.63;10.23;;;;;;;19.81;61.91;98060.94;5093574;28;20493;-75
2022/04/30 08:28:24;;;;;;;20.05;11.25;;;;;;;18.91;64.91;98058.13;5093751;28;20024;-76
2022/04/30 08:30:50;;;;;;;18.10;11.63;;;;;;;18.32;66.18;98059.69;5093453;28;20031;-76
2022/04/30 08:33:16;;;;;;;23.20;11.63;;;;;;;18.94;63.30;98066.00;5093266;28;20085;-76
2022/04/30 08:35:41;;;;;;;18.30;11.05;;;;;;;20.30;58.86;98046.44;5093253;28;20463;-76
2022/04/30 08:38:07;;;;;;;19.50;10.35;;;;;;;22.95;50.99;98034.44;5093044;28;20039;-76
2022/04/30 08:40:34;;;;;;;16.38;9.98;;;;;;;24.54;45.87;98025.34;5093371;28;20501;-76
2022/04/30 08:43:26;;;;;;;15.82;10.23;;;;;;;22.70;49.47;98035.31;5093262;28;20024;-76
2022/04/30 08:45:52;;;;;;;17.70;10.70;;;;;;;22.63;49.51;98035.03;5074180;28;20159;-76
2022/04/30 08:48:18;;;;;;;14.77;8.85;;;;;;;22.67;48.59;98019.25;5076434;28;20039;-76
2022/04/30 08:50:45;;;;;;;12.40;8.70;;;;;;;21.39;51.64;98031.31;5093363;28;20119;-76
2022/04/30 08:53:11;;;;;;;12.73;9.35;;;;;;;20.51;55.49;98033.53;5093034;28;20406;-75
2022/04/30 08:55:37;;;;;;;18.20;10.30;;;;;;;19.97;56.64;98029.50;5093148;28;20030;-77
2022/04/30 08:58:02;;;;;;;15.57;9.77;;;;;;;20.06;57.19;98032.38;5092662;28;20024;-76
2022/04/30 09:00:29;;;;;;;14.57;9.70;;;;;;;20.02;57.21;98037.25;5092943;28;20043;-75
2022/04/30 09:02:58;;;;;;;15.35;9.15;;;;;;;22.32;52.29;98019.25;5092951;28;20035;-75
2022/04/30 09:05:37;;;;;;;10.80;7.90;;;;;;;23.84;46.24;97995.84;5092769;28;20031;-76
2022/04/30 09:08:03;;;;;;;13.65;8.93;;;;;;;23.22;47.92;98006.97;5092729;28;20070;-75
2022/04/30 09:10:30;;;;;;;12.43;9.20;;;;;;;22.16;49.96;98009.06;5092903;28;20046;-76
2022/04/30 09:13:16;;;;;;;13.73;8.73;;;;;;;21.34;53.33;98021.88;5092837;28;20445;-77
2022/04/30 09:15:46;;;;;;;17.08;8.52;;;;;;;20.15;54.36;98015.22;5092726;28;20036;-75
2022/04/30 09:18:15;;;;;;;11.68;6.75;;;;;;;20.05;55.78;98015.22;5090249;28;20050;-76
2022/04/30 09:20:53;;;;;;;11.13;7.68;;;;;;;20.17;55.32;98015.94;5092766;28;20040;-75
2022/04/30 09:23:25;;;;;;;11.65;7.20;;;;;;;21.06;52.32;98008.22;5074106;28;20035;-78
2022/04/30 09:25:53;;;;;;;;;;;;;;;22.11;49.54;97987.72;5094448;28;20039;-76
2022/04/30 09:28:27;;;;;;;11.15;6.60;;;;;;;24.69;43.99;97970.78;5092511;28;19963;-76
2022/04/30 09:31:03;;;;;;;7.28;5.72;;;;;;;26.06;40.06;97947.50;5092661;28;20026;-76
2022/04/30 09:33:29;;;;;;;8.32;6.35;;;;;;;26.94;38.89;97951.44;5092228;28;20169;-77
2022/04/30 09:38:51;;;;;;;9.27;6.75;;;;;;;28.47;36.37;97932.84;5092588;28;20115;-76
2022/04/30 09:41:25;;;;;;;7.32;6.05;;;;;;;26.13;39.71;97952.09;5092096;28;20047;-76
2022/04/30 09:44:07;;;;;;;7.55;6.05;;;;;;;25.97;40.77;97946.69;5092258;28;20463;-76
2022/04/30 09:46:38;;;;;;;;;;;;;;;25.38;42.06;97959.16;5092461;28;20031;-76
2022/04/30 09:54:39;;;;;;;9.75;6.05;;;;;;;25.01;41.82;97945.28;5092099;28;20085;-76
2022/04/30 09:57:07;;;;;;;22.23;10.38;;;;;;;24.26;44.14;97950.13;5093312;28;20026;-76
2022/04/30 09:59:35;;;;;;;24.55;9.30;;;;;;;23.72;45.40;97962.47;5091721;28;20032;-76
2022/04/30 10:02:05;;;;;;;10.82;6.25;;;;;;;21.80;48.35;97964.56;5091747;28;20484;-76
2022/04/30 10:04:32;;;;;;;9.82;6.05;;;;;;;21.12;50.66;97967.84;5108996;28;20495;-76
2022/04/30 10:07:00;;;;;;;22.77;8.20;;;;;;;22.57;48.97;97953.00;5091671;28;20468;-76
2022/04/30 10:09:58;;;;;;;15.35;7.40;;;;;;;25.38;42.84;97934.50;5092002;28;20016;-77
2022/04/30 10:12:32;;;;;;;10.98;6.72;;;;;;;25.60;40.11;97930.13;5088833;28;20051;-77
2022/04/30 10:15:11;;;;;;;7.43;4.30;;;;;;;24.36;40.50;97903.47;5091247;28;20499;-77
2022/04/30 10:17:42;;;;;;;9.63;4.00;;;;;;;24.57;40.82;97911.97;5092805;28;20035;-77
2022/04/30 10:20:16;;;;;;;4.28;3.70;;;;;;;25.38;39.04;97906.28;5075260;28;20058;-77
2022/04/30 10:22:59;;;;;;;7.70;3.83;;;;;;;26.89;37.22;97897.06;5091595;28;20032;-78
2022/04/30 10:25:36;;;;;;;4.88;3.55;;;;;;;29.02;34.79;97876.94;5091633;28;20475;-77
2022/04/30 10:28:31;;;;;;;8.57;3.50;;;;;;;27.82;34.18;97866.13;5091103;28;20038;-77
2022/04/30 10:31:03;;;;;;;7.65;3.33;;;;;;;29.18;32.96;97864.72;5073722;28;20059;-77
2022/04/30 10:33:29;;;;;;;5.63;3.33;;;;;;;31.48;30.15;97856.63;5108279;28;20074;-77
2022/04/30 10:36:06;;;;;;;5.75;3.38;;;;;;;31.25;30.36;97848.88;5091011;28;20036;-77
2022/04/30 10:38:32;;;;;;;9.23;7.20;;;;;;;31.23;30.36;97851.00;5073914;28;20052;-77
2022/04/30 10:41:00;;;;;;;9.38;4.38;;;;;;;29.94;32.08;97855.28;5090722;28;20024;-78
2022/04/30 10:43:34;;;;;;;4.03;2.67;;;;;;;27.12;33.52;97861.25;5090709;28;20048;-77
2022/04/30 10:46:01;;;;;;;2.22;2.03;;;;;;;26.71;34.02;97865.47;5074567;28;20079;-77
2022/04/30 10:48:27;;;;;;;3.40;1.70;;;;;;;26.83;32.85;97839.28;5090913;28;20027;-77
2022/04/30 10:51:13;;;;;;;7.55;4.50;;;;;;;27.70;32.67;97842.94;5107766;28;20412;-77
2022/04/30 10:53:42;;;;;;;3.17;2.10;;;;;;;28.41;32.42;97842.81;5090994;28;20144;-77
2022/04/30 10:56:08;;;;;;;4.38;2.17;;;;;;;30.25;29.56;97824.31;5090538;28;20104;-78
2022/04/30 10:58:38;;;;;;;2.60;2.00;;;;;;;29.77;29.63;97822.75;5091985;28;20032;-77
2022/04/30 11:01:16;;;;;;;3.88;3.13;;;;;;;29.74;29.47;97820.41;5090383;28;20092;-77
2022/04/30 11:03:46;;;;;;;3.72;2.22;;;;;;;33.14;26.40;97817.25;5091840;28;20032;-77
2022/04/30 11:06:22;;;;;;;2.33;2.03;;;;;;;32.41;26.64;97811.56;5090269;28;20038;-78
2022/04/30 11:08:57;;;;;;;6.05;1.92;;;;;;;29.64;29.28;97826.31;5092002;28;20028;-77
2022/04/30 11:11:23;;;;;;;3.10;1.90;;;;;;;28.36;30.72;97808.69;5091884;28;20028;-76
2022/04/30 11:14:02;;;;;;;2.80;1.63;;;;;;;25.97;34.08;97820.56;5090750;28;20054;-76
2022/04/30 11:16:38;;;;;;;3.58;1.45;;;;;;;24.90;35.60;97822.44;5091791;28;20399;-76
2022/04/30 11:19:11;;;;;;;14.10;2.50;;;;;;;24.44;37.17;97835.06;5090169;28;20081;-76
2022/04/30 11:21:38;;;;;;;2.05;1.70;;;;;;;24.27;36.71;97831.53;5090532;28;20015;-76
2022/04/30 11:24:05;;;;;;;2.85;1.60;;;;;;;22.95;38.41;97837.97;5089763;28;20392;-76
2022/04/30 11:26:36;;;;;;;3.03;1.48;;;;;;;22.81;39.04;97830.41;5090226;28;20047;-76
2022/04/30 11:29:02;;;;;;;4.53;1.73;;;;;;;23.37;37.98;97817.97;5090146;28;20028;-76
2022/04/30 11:31:27;;;;;;;2.45;1.90;;;;;;;23.57;37.51;97827.56;5090228;28;20074;-76
2022/04/30 11:33:53;;;;;;;5.43;1.77;;;;;;;23.13;38.38;97816.88;5090110;28;20547;-76
2022/04/30 11:36:19;;;;;;;5.60;1.67;;;;;;;23.14;38.08;97821.31;5106864;28;20035;-77
2022/04/30 11:38:52;;;;;;;2.15;1.67;;;;;;;24.10;36.53;97825.19;5089978;28;20143;-76
2022/04/30 11:41:18;;;;;;;9.23;2.25;;;;;;;25.32;35.58;97823.75;5072869;28;20119;-76
2022/04/30 11:43:44;;;;;;;2.67;1.70;;;;;;;27.06;32.61;97815.31;5107051;28;20118;-77
2022/04/30 11:46:09;;;;;;;4.95;1.65;;;;;;;27.74;30.97;97803.03;5089982;28;20056;-77
2022/04/30 11:48:39;;;;;;;3.10;1.60;;;;;;;28.00;30.56;97792.25;5090319;28;20028;-76
2022/04/30 11:51:08;;;;;;;9.43;2.25;;;;;;;29.67;29.22;97791.97;5089705;28;20070;-76
2022/04/30 11:53:35;;;;;;;4.20;1.98;;;;;;;29.17;28.77;97780.34;5089845;28;20032;-76